createdAt,value
2023-03-12T00:01:13.170Z,5.00
2023-03-12T00:03:40.380Z,4.38
2023-03-12T00:06:10.767Z,4.75
2023-03-12T00:08:37.445Z,4.60
2023-03-12T00:11:12.609Z,4.97
2023-03-12T00:13:39.348Z,4.97
2023-03-12T00:16:11.200Z,5.13
2023-03-12T00:18:37.887Z,5.13
2023-03-12T00:21:04.742Z,4.60
2023-03-12T00:23:31.181Z,5.25
2023-03-12T00:26:11.905Z,5.32
2023-03-12T00:28:39.041Z,5.28
2023-03-12T00:31:15.179Z,5.30
2023-03-12T00:33:41.588Z,4.90
2023-03-12T00:36:08.739Z,4.80
2023-03-12T00:38:37.529Z,5.05
2023-03-12T00:41:04.029Z,5.65
2023-03-12T00:43:30.474Z,5.28
2023-03-12T00:45:56.825Z,5.50
2023-03-12T00:48:23.352Z,5.40
2023-03-12T00:50:49.716Z,5.25
2023-03-12T00:53:16.105Z,4.88
2023-03-12T00:55:42.497Z,5.32
2023-03-12T00:58:08.970Z,5.18
2023-03-12T01:00:35.466Z,4.85
2023-03-12T01:03:01.906Z,5.03
2023-03-12T01:05:28.356Z,5.43
2023-03-12T01:07:54.784Z,5.15
2023-03-12T01:10:23.308Z,4.75
2023-03-12T01:12:49.733Z,4.95
2023-03-12T01:15:17.642Z,4.82
2023-03-12T01:17:44.086Z,5.40
2023-03-12T01:20:11.114Z,5.18
2023-03-12T01:22:37.711Z,5.15
2023-03-12T01:25:04.231Z,4.90
2023-03-12T01:27:30.931Z,5.43
2023-03-12T01:29:57.357Z,5.03
2023-03-12T01:32:23.902Z,4.72
2023-03-12T01:34:50.301Z,5.28
2023-03-12T01:37:16.704Z,5.00
2023-03-12T01:39:43.180Z,4.78
2023-03-12T01:42:09.555Z,5.00
2023-03-12T01:44:56.110Z,4.88
2023-03-12T01:47:23.061Z,5.63
2023-03-12T01:49:51.921Z,5.60
2023-03-12T01:52:24.455Z,5.30
2023-03-12T01:57:34.908Z,5.50
2023-03-12T02:00:07.356Z,5.25
2023-03-12T02:05:13.709Z,5.15
2023-03-12T02:07:40.104Z,5.43
2023-03-12T02:10:06.859Z,5.22
2023-03-12T02:12:33.337Z,5.50
2023-03-12T02:14:59.898Z,5.95
2023-03-12T02:17:26.312Z,5.53
2023-03-12T02:20:19.712Z,5.82
2023-03-12T02:23:06.974Z,5.25
2023-03-12T02:25:44.479Z,5.45
2023-03-12T02:28:14.676Z,5.68
2023-03-12T02:30:44.294Z,5.65
2023-03-12T02:33:11.093Z,5.78
2023-03-12T02:35:38.176Z,5.47
2023-03-12T02:38:44.261Z,5.50
2023-03-12T02:41:27.269Z,5.35
2023-03-12T02:44:12.748Z,4.88
2023-03-12T02:46:48.184Z,5.05
2023-03-12T02:49:15.820Z,5.10
2023-03-12T02:51:43.142Z,5.38
2023-03-12T02:54:10.499Z,5.20
2023-03-12T02:56:37.330Z,5.07
2023-03-12T02:59:05.063Z,4.75
2023-03-12T03:01:34.206Z,4.82
2023-03-12T03:04:05.534Z,5.25
2023-03-12T03:06:32.457Z,4.93
2023-03-12T03:08:59.459Z,5.60
2023-03-12T03:11:25.892Z,4.93
2023-03-12T03:13:52.781Z,4.78
2023-03-12T03:16:19.215Z,5.18
2023-03-12T03:18:45.757Z,4.95
2023-03-12T03:21:16.417Z,4.93
2023-03-12T03:23:44.272Z,4.45
2023-03-12T03:26:10.639Z,4.40
2023-03-12T03:28:37.304Z,4.90
2023-03-12T03:31:03.932Z,4.70
2023-03-12T03:33:31.694Z,4.13
2023-03-12T03:35:59.544Z,4.53
2023-03-12T03:38:27.138Z,3.78
2023-03-12T03:40:53.719Z,4.60
2023-03-12T03:43:20.207Z,4.55
2023-03-12T03:45:46.715Z,4.07
2023-03-12T03:48:13.463Z,3.88
2023-03-12T03:50:41.003Z,4.13
2023-03-12T03:53:09.003Z,4.25
2023-03-12T03:55:39.572Z,3.72
2023-03-12T03:58:06.472Z,3.63
2023-03-12T04:00:33.484Z,4.38
2023-03-12T04:03:00.152Z,4.28
2023-03-12T04:05:26.668Z,3.60
2023-03-12T04:07:53.832Z,3.60
2023-03-12T04:10:21.256Z,3.80
2023-03-12T04:12:47.692Z,3.63
2023-03-12T04:15:14.166Z,3.85
2023-03-12T04:17:40.614Z,3.60
2023-03-12T04:20:08.907Z,4.05
2023-03-12T04:22:35.602Z,3.90
2023-03-12T04:25:02.048Z,3.58
2023-03-12T04:27:28.404Z,3.50
2023-03-12T04:29:54.898Z,3.70
2023-03-12T04:32:21.352Z,3.38
2023-03-12T04:34:47.787Z,3.70
2023-03-12T04:37:14.220Z,3.60
2023-03-12T04:39:41.258Z,3.90
2023-03-12T04:42:08.364Z,3.83
2023-03-12T04:44:34.907Z,3.33
2023-03-12T04:47:01.485Z,3.13
2023-03-12T04:49:27.937Z,3.20
2023-03-12T04:51:54.656Z,2.92
2023-03-12T04:54:21.351Z,2.95
2023-03-12T04:56:48.699Z,2.70
2023-03-12T04:59:15.103Z,3.05
2023-03-12T05:01:42.483Z,2.90
2023-03-12T05:04:08.984Z,3.15
2023-03-12T05:06:35.697Z,3.15
2023-03-12T05:09:02.390Z,2.95
2023-03-12T05:11:28.821Z,2.72
2023-03-12T05:13:55.237Z,3.17
2023-03-12T05:16:21.719Z,3.00
2023-03-12T05:18:51.178Z,2.75
2023-03-12T05:21:19.616Z,2.70
2023-03-12T05:23:46.590Z,2.70
2023-03-12T05:26:28.150Z,3.03
2023-03-12T05:28:55.420Z,2.60
2023-03-12T05:31:21.988Z,3.17
2023-03-12T05:33:48.678Z,3.65
2023-03-12T05:36:16.687Z,2.80
2023-03-12T05:38:43.120Z,3.10
2023-03-12T05:41:24.251Z,2.80
2023-03-12T05:43:52.413Z,2.78
2023-03-12T05:46:18.870Z,3.33
2023-03-12T05:48:45.671Z,2.67
2023-03-12T05:51:12.142Z,2.95
2023-03-12T05:53:38.673Z,3.25
2023-03-12T05:56:08.190Z,2.58
2023-03-12T05:58:36.064Z,2.72
2023-03-12T06:01:02.680Z,3.15
2023-03-12T06:03:29.090Z,2.97
2023-03-12T06:05:56.300Z,3.15
2023-03-12T06:08:24.074Z,3.03
2023-03-12T06:10:52.106Z,2.80
2023-03-12T06:13:18.597Z,2.97
2023-03-12T06:15:44.956Z,2.75
2023-03-12T06:18:11.383Z,2.75
2023-03-12T06:20:37.821Z,3.17
2023-03-12T06:23:07.235Z,2.92
2023-03-12T06:25:33.610Z,2.72
2023-03-12T06:28:00.120Z,2.90
2023-03-12T06:30:27.592Z,3.38
2023-03-12T06:32:54.454Z,3.63
2023-03-12T06:35:20.994Z,3.28
2023-03-12T06:37:47.460Z,3.30
2023-03-12T06:40:13.969Z,3.15
2023-03-12T06:42:40.408Z,3.15
2023-03-12T06:45:07.393Z,3.30
2023-03-12T06:47:33.804Z,3.50
2023-03-12T06:50:00.417Z,3.90
2023-03-12T06:52:27.599Z,3.22
2023-03-12T06:54:54.025Z,3.25
2023-03-12T06:57:20.436Z,3.47
2023-03-12T06:59:49.404Z,3.22
2023-03-12T07:02:17.803Z,3.28
2023-03-12T07:04:44.428Z,2.97
2023-03-12T07:07:11.844Z,3.22
2023-03-12T07:09:38.214Z,2.95
2023-03-12T07:12:04.733Z,3.15
2023-03-12T07:14:31.097Z,3.20
2023-03-12T07:16:58.929Z,3.42
2023-03-12T07:19:25.313Z,3.05
2023-03-12T07:21:51.681Z,3.63
2023-03-12T07:24:18.081Z,3.30
2023-03-12T07:26:44.447Z,3.30
2023-03-12T07:29:10.855Z,3.55
2023-03-12T07:31:37.278Z,3.35
2023-03-12T07:34:03.878Z,3.80
2023-03-12T07:36:30.461Z,4.00
2023-03-12T07:38:56.945Z,3.72
2023-03-12T07:41:23.476Z,3.70
2023-03-12T07:43:50.022Z,3.60
2023-03-12T07:46:16.483Z,3.95
2023-03-12T07:49:37.146Z,3.47
2023-03-12T07:51:29.272Z,3.35
2023-03-12T07:53:55.622Z,3.17
2023-03-12T07:56:22.115Z,3.55
2023-03-12T07:58:48.753Z,3.40
2023-03-12T08:01:15.312Z,3.35
2023-03-12T08:03:41.969Z,4.20
2023-03-12T08:06:08.584Z,3.20
2023-03-12T08:08:36.137Z,2.97
2023-03-12T08:11:04.267Z,3.13
2023-03-12T08:13:31.519Z,3.65
2023-03-12T08:15:58.165Z,3.00
2023-03-12T08:18:24.791Z,3.60
2023-03-12T08:20:52.688Z,3.28
2023-03-12T08:23:19.575Z,3.40
2023-03-12T08:25:47.383Z,2.72
2023-03-12T08:28:14.661Z,3.08
2023-03-12T08:30:46.697Z,2.88
2023-03-12T08:33:13.216Z,3.58
2023-03-12T08:35:39.685Z,3.50
2023-03-12T08:38:06.122Z,3.05
2023-03-12T08:40:32.528Z,3.30
2023-03-12T08:42:58.932Z,2.75
2023-03-12T08:45:25.340Z,2.97
2023-03-12T08:47:51.746Z,3.10
2023-03-12T08:50:18.320Z,3.00
2023-03-12T08:52:44.685Z,3.28
2023-03-12T08:55:11.764Z,2.78
2023-03-12T08:57:38.379Z,3.10
2023-03-12T09:00:07.536Z,3.38
2023-03-12T09:02:34.002Z,3.00
2023-03-12T09:05:00.402Z,2.75
2023-03-12T09:07:26.769Z,2.92
2023-03-12T09:09:54.859Z,3.60
2023-03-12T09:12:21.931Z,3.42
2023-03-12T09:15:03.034Z,3.70
2023-03-12T09:17:30.462Z,3.30
2023-03-12T09:19:56.871Z,3.40
2023-03-12T09:22:23.221Z,3.03
2023-03-12T09:24:49.695Z,3.10
2023-03-12T09:27:16.068Z,3.00
2023-03-12T09:29:58.638Z,3.85
2023-03-12T09:32:27.508Z,3.35
2023-03-12T09:34:54.436Z,3.17
2023-03-12T09:37:23.739Z,2.92
2023-03-12T09:39:50.876Z,3.25
2023-03-12T09:42:24.160Z,3.28
2023-03-12T09:44:52.326Z,3.28
2023-03-12T09:47:30.756Z,2.80
2023-03-12T09:50:04.065Z,3.33
2023-03-12T09:52:44.705Z,3.58
2023-03-12T09:55:11.301Z,3.83
2023-03-12T09:57:37.769Z,3.40
2023-03-12T10:00:07.213Z,3.95
2023-03-12T10:02:42.615Z,3.63
2023-03-12T10:05:13.543Z,3.80
2023-03-12T10:07:47.028Z,3.85
2023-03-12T10:10:24.759Z,4.10
2023-03-12T10:13:13.602Z,4.72
2023-03-12T10:15:54.802Z,4.47
2023-03-12T10:18:39.813Z,4.00
2023-03-12T10:21:30.780Z,4.72
2023-03-12T10:24:12.419Z,4.68
2023-03-12T10:26:46.205Z,4.93
2023-03-12T10:29:26.178Z,5.15
2023-03-12T10:32:10.966Z,5.03
2023-03-12T10:34:46.383Z,4.95
2023-03-12T10:37:16.751Z,4.80
2023-03-12T10:39:43.455Z,4.88
2023-03-12T10:42:18.913Z,4.65
2023-03-12T10:45:10.411Z,4.38
2023-03-12T10:47:39.250Z,4.78
2023-03-12T10:50:25.651Z,5.13
2023-03-12T10:52:54.462Z,5.47
2023-03-12T10:55:26.834Z,5.47
2023-03-12T10:57:53.735Z,6.72
2023-03-12T11:00:26.131Z,7.30
2023-03-12T11:02:58.763Z,7.32
2023-03-12T11:05:29.377Z,7.28
2023-03-12T11:07:57.008Z,8.73
2023-03-12T11:10:38.733Z,8.80
2023-03-12T11:13:21.009Z,6.82
2023-03-12T11:15:47.875Z,9.38
2023-03-12T11:18:22.375Z,10.60
2023-03-12T11:20:50.277Z,10.40
2023-03-12T11:23:20.462Z,10.35
2023-03-12T11:25:53.344Z,10.82
2023-03-12T11:28:24.138Z,9.15
2023-03-12T11:30:52.560Z,9.73
2023-03-12T11:33:19.036Z,9.15
2023-03-12T11:36:36.680Z,9.50
2023-03-12T11:39:22.276Z,9.85
2023-03-12T11:41:48.569Z,10.07
2023-03-12T11:44:25.255Z,9.80
2023-03-12T11:47:14.966Z,10.25
2023-03-12T11:50:03.222Z,10.27
2023-03-12T11:52:51.420Z,9.73
2023-03-12T11:55:36.537Z,9.80
2023-03-12T11:58:20.422Z,9.82
2023-03-12T12:01:01.925Z,11.00
2023-03-12T12:03:39.222Z,10.52
2023-03-12T12:06:14.597Z,9.88
2023-03-12T12:09:05.250Z,9.55
2023-03-12T12:11:45.225Z,9.95
2023-03-12T12:14:19.438Z,10.05
2023-03-12T12:17:01.830Z,10.00
2023-03-12T12:19:47.085Z,10.75
2023-03-12T12:22:33.520Z,9.07
2023-03-12T12:25:00.108Z,8.93
2023-03-12T12:27:29.044Z,7.50
2023-03-12T12:30:17.682Z,8.20
2023-03-12T12:33:16.421Z,8.45
2023-03-12T12:35:43.490Z,8.52
2023-03-12T12:38:33.354Z,7.85
2023-03-12T12:41:04.306Z,8.02
2023-03-12T12:43:47.830Z,8.52
2023-03-12T12:46:20.676Z,8.57
2023-03-12T12:48:52.579Z,8.52
2023-03-12T12:51:26.778Z,9.98
2023-03-12T12:54:03.034Z,8.48
2023-03-12T12:56:40.970Z,8.63
2023-03-12T12:59:10.314Z,9.00
2023-03-12T13:01:37.186Z,9.20
2023-03-12T13:04:10.127Z,9.07
2023-03-12T13:07:01.417Z,9.23
2023-03-12T13:09:44.720Z,9.68
2023-03-12T13:12:30.878Z,10.00
2023-03-12T13:14:58.679Z,10.80
2023-03-12T13:17:34.558Z,10.77
2023-03-12T13:20:13.587Z,11.30
2023-03-12T13:22:39.877Z,11.15
2023-03-12T13:25:29.066Z,11.93
2023-03-12T13:28:01.434Z,12.13
2023-03-12T13:30:33.801Z,12.68
2023-03-12T13:33:03.025Z,12.85
2023-03-12T13:35:37.902Z,12.93
2023-03-12T13:38:06.758Z,13.05
2023-03-12T13:40:35.890Z,13.68
2023-03-12T13:43:02.240Z,13.35
2023-03-12T13:45:31.920Z,13.00
2023-03-12T13:48:00.956Z,14.77
2023-03-12T13:50:28.724Z,14.80
2023-03-12T13:53:07.164Z,14.52
2023-03-12T13:55:35.364Z,14.50
2023-03-12T13:58:01.725Z,14.20
2023-03-12T14:00:31.094Z,14.55
2023-03-12T14:02:58.650Z,15.35
2023-03-12T14:05:25.688Z,15.52
2023-03-12T14:08:03.157Z,15.77
2023-03-12T14:10:48.319Z,16.27
2023-03-12T14:13:25.673Z,16.75
2023-03-12T14:16:06.354Z,17.38
2023-03-12T14:18:34.907Z,18.73
2023-03-12T14:21:06.188Z,19.02
2023-03-12T14:23:48.163Z,20.88
2023-03-12T14:26:21.689Z,23.00
2023-03-12T14:29:09.127Z,23.27
2023-03-12T14:31:36.383Z,24.23
2023-03-12T14:34:10.256Z,23.23
2023-03-12T14:36:46.794Z,24.63
2023-03-12T14:39:21.710Z,26.83
2023-03-12T14:41:54.695Z,26.52
2023-03-12T14:44:24.277Z,26.90
2023-03-12T14:47:02.514Z,28.75
2023-03-12T14:49:30.233Z,29.45
2023-03-12T14:51:57.249Z,29.58
2023-03-12T14:54:26.967Z,29.98
2023-03-12T14:56:53.706Z,31.17
2023-03-12T14:59:22.780Z,29.58
2023-03-12T15:01:49.272Z,32.17
2023-03-12T15:04:21.223Z,32.25
2023-03-12T15:06:54.246Z,32.17
2023-03-12T15:09:27.465Z,31.75
2023-03-12T15:12:03.432Z,33.05
2023-03-12T15:14:33.180Z,31.50
2023-03-12T15:17:00.571Z,31.38
2023-03-12T15:19:31.695Z,31.77
2023-03-12T15:21:58.301Z,32.28
2023-03-12T15:24:25.387Z,33.28
2023-03-12T15:26:51.858Z,31.63
2023-03-12T15:29:28.802Z,30.42
2023-03-12T15:32:00.177Z,30.17
2023-03-12T15:34:39.418Z,30.40
2023-03-12T15:37:28.521Z,29.25
2023-03-12T15:39:55.549Z,29.92
2023-03-12T15:42:24.205Z,30.00
2023-03-12T15:44:56.610Z,31.35
2023-03-12T15:47:31.321Z,32.00
2023-03-12T15:50:00.393Z,32.13
2023-03-12T15:52:32.379Z,32.22
2023-03-12T15:55:05.898Z,33.33
2023-03-12T15:57:48.406Z,34.47
2023-03-12T16:00:22.452Z,32.67
2023-03-12T16:02:59.309Z,33.38
2023-03-12T16:05:46.214Z,34.28
2023-03-12T16:08:20.552Z,35.20
2023-03-12T16:10:47.927Z,37.70
2023-03-12T16:13:16.433Z,38.22
2023-03-12T16:15:43.442Z,39.25
2023-03-12T16:18:21.015Z,40.25
2023-03-12T16:20:48.536Z,42.40
2023-03-12T16:23:15.886Z,41.20
2023-03-12T16:25:44.302Z,42.63
2023-03-12T16:28:13.825Z,43.85
2023-03-12T16:30:40.563Z,42.20
2023-03-12T16:33:09.084Z,40.35
2023-03-12T16:35:35.860Z,37.55
2023-03-12T16:38:02.830Z,38.38
2023-03-12T16:40:34.638Z,37.78
2023-03-12T16:43:05.915Z,38.50
2023-03-12T16:45:35.207Z,38.88
2023-03-12T16:48:04.733Z,38.63
2023-03-12T16:50:31.362Z,38.10
2023-03-12T16:52:58.027Z,37.95
2023-03-12T16:55:27.920Z,37.42
2023-03-12T16:57:57.836Z,38.17
2023-03-12T17:00:26.978Z,35.40
2023-03-12T17:02:57.810Z,35.15
2023-03-12T17:05:25.624Z,35.72
2023-03-12T17:07:52.225Z,32.50
2023-03-12T17:10:18.665Z,30.58
2023-03-12T17:12:48.232Z,32.25
2023-03-12T17:15:19.389Z,29.38
2023-03-12T17:17:46.317Z,26.98
2023-03-12T17:20:17.241Z,26.38
2023-03-12T17:22:44.083Z,24.73
2023-03-12T17:25:24.869Z,23.08
2023-03-12T17:27:51.856Z,22.83
2023-03-12T17:30:19.127Z,21.00
2023-03-12T17:32:45.554Z,22.73
2023-03-12T17:35:11.995Z,20.10
2023-03-12T17:37:38.498Z,20.77
2023-03-12T17:40:08.275Z,20.08
2023-03-12T17:42:35.732Z,17.80
2023-03-12T17:45:03.269Z,18.13
2023-03-12T17:47:30.969Z,16.05
2023-03-12T17:49:57.510Z,14.77
2023-03-12T17:52:24.657Z,13.60
2023-03-12T17:54:51.196Z,14.07
2023-03-12T17:57:17.624Z,13.95
2023-03-12T17:59:44.050Z,13.43
2023-03-12T18:02:10.898Z,13.75
2023-03-12T18:04:37.442Z,13.88
2023-03-12T18:07:04.546Z,13.35
2023-03-12T18:09:31.033Z,11.77
2023-03-12T18:11:57.390Z,16.17
2023-03-12T18:14:23.818Z,13.95
2023-03-12T18:16:50.291Z,13.25
2023-03-12T18:19:17.013Z,12.82
2023-03-12T18:21:43.491Z,12.90
2023-03-12T18:24:14.471Z,13.80
2023-03-12T18:26:41.464Z,14.18
2023-03-12T18:29:07.860Z,13.40
2023-03-12T18:31:34.694Z,12.98
2023-03-12T18:34:01.141Z,12.65
2023-03-12T18:36:27.533Z,12.73
2023-03-12T18:38:53.964Z,12.02
2023-03-12T18:41:20.656Z,13.43
2023-03-12T18:43:47.020Z,12.43
2023-03-12T18:46:13.744Z,12.40
2023-03-12T18:48:41.792Z,11.85
2023-03-12T18:51:10.036Z,13.30
2023-03-12T18:53:36.484Z,11.73
2023-03-12T18:56:02.913Z,11.73
2023-03-12T18:58:29.299Z,11.35
2023-03-12T19:00:57.197Z,11.27
2023-03-12T19:03:24.316Z,10.43
2023-03-12T19:06:01.944Z,9.98
2023-03-12T19:08:29.284Z,9.85
2023-03-12T19:10:55.661Z,10.57
2023-03-12T19:13:22.028Z,19.48
2023-03-12T19:15:48.524Z,19.40
2023-03-12T19:18:14.892Z,21.90
2023-03-12T19:20:41.287Z,16.67
2023-03-12T19:23:07.698Z,12.30
2023-03-12T19:25:34.114Z,11.15
2023-03-12T19:28:00.549Z,10.65
2023-03-12T19:30:30.461Z,11.30
2023-03-12T19:32:56.875Z,12.40
2023-03-12T19:35:23.329Z,12.90
2023-03-12T19:37:49.824Z,12.32
2023-03-12T19:40:16.336Z,12.07
2023-03-12T19:42:42.732Z,13.18
2023-03-12T19:45:10.156Z,12.95
2023-03-12T19:47:36.564Z,13.38
2023-03-12T19:50:03.037Z,13.48
2023-03-12T19:52:29.909Z,12.80
2023-03-12T19:55:04.224Z,15.02
2023-03-12T19:57:31.892Z,14.90
2023-03-12T19:59:58.331Z,15.43
2023-03-12T20:02:25.912Z,17.42
2023-03-12T20:04:52.384Z,15.82
2023-03-12T20:07:18.763Z,15.55
2023-03-12T20:09:45.248Z,15.32
2023-03-12T20:12:11.633Z,14.45
2023-03-12T20:14:38.024Z,14.13
2023-03-12T20:17:04.425Z,12.68
2023-03-12T20:19:30.816Z,13.25
2023-03-12T20:21:57.263Z,13.30
2023-03-12T20:24:23.871Z,13.15
2023-03-12T20:26:50.238Z,12.38
2023-03-12T20:29:16.632Z,13.13
2023-03-12T20:31:43.490Z,13.10
2023-03-12T20:34:09.918Z,12.20
2023-03-12T20:36:36.291Z,10.60
2023-03-12T20:39:02.687Z,11.15
2023-03-12T20:41:29.224Z,9.73
2023-03-12T20:43:57.337Z,9.85
2023-03-12T20:46:24.030Z,9.57
2023-03-12T20:48:50.610Z,9.90
2023-03-12T20:51:17.496Z,9.23
2023-03-12T20:53:43.990Z,8.43
2023-03-12T20:56:10.967Z,7.93
2023-03-12T20:58:37.410Z,7.88
2023-03-12T21:01:04.956Z,7.72
2023-03-12T21:03:31.838Z,7.82
2023-03-12T21:06:00.159Z,6.53
2023-03-12T21:08:27.239Z,7.28
2023-03-12T21:10:53.866Z,7.53
2023-03-12T21:13:21.638Z,7.15
2023-03-12T21:15:48.414Z,7.05
2023-03-12T21:18:16.135Z,6.70
2023-03-12T21:20:42.919Z,6.63
2023-03-12T21:23:10.340Z,6.90
2023-03-12T21:25:38.169Z,6.43
2023-03-12T21:28:05.693Z,6.30
2023-03-12T21:30:32.505Z,6.80
2023-03-12T21:32:58.905Z,6.40
2023-03-12T21:35:26.679Z,7.18
2023-03-12T21:37:55.892Z,6.25
2023-03-12T21:40:23.419Z,7.22
2023-03-12T21:42:51.986Z,6.55
2023-03-12T21:45:18.376Z,7.32
2023-03-12T21:47:44.785Z,6.50
2023-03-12T21:50:11.669Z,6.32
2023-03-12T21:52:42.977Z,7.00
2023-03-12T21:55:10.140Z,6.97
2023-03-12T21:57:36.638Z,6.50
2023-03-12T22:00:04.516Z,6.18
2023-03-12T22:02:31.573Z,6.18
2023-03-12T22:05:00.999Z,6.43
2023-03-12T22:07:29.967Z,6.95
2023-03-12T22:09:56.452Z,7.72
2023-03-12T22:12:22.856Z,6.45
2023-03-12T22:14:49.303Z,7.97
2023-03-12T22:17:15.730Z,8.48
2023-03-12T22:19:42.236Z,6.97
2023-03-12T22:22:08.974Z,7.03
2023-03-12T22:24:35.445Z,6.70
2023-03-12T22:27:03.292Z,6.18
2023-03-12T22:29:29.675Z,5.47
2023-03-12T22:31:56.252Z,5.82
2023-03-12T22:34:22.604Z,5.45
2023-03-12T22:36:49.037Z,5.53
2023-03-12T22:39:16.469Z,6.25
2023-03-12T22:41:42.879Z,5.15
2023-03-12T22:44:09.590Z,5.45
2023-03-12T22:46:36.496Z,4.97
2023-03-12T22:49:04.016Z,5.55
2023-03-12T22:51:31.688Z,5.50
2023-03-12T22:53:58.410Z,6.35
2023-03-12T22:56:24.960Z,5.82
2023-03-12T22:58:51.370Z,5.50
2023-03-12T23:01:20.253Z,6.10
2023-03-12T23:03:47.217Z,5.65
2023-03-12T23:06:21.782Z,5.60
2023-03-12T23:08:48.639Z,5.40
2023-03-12T23:11:15.893Z,5.88
2023-03-12T23:13:44.356Z,5.75
2023-03-12T23:16:13.432Z,5.40
2023-03-12T23:18:39.884Z,6.00
2023-03-12T23:21:11.754Z,6.35
2023-03-12T23:23:43.304Z,6.72
2023-03-12T23:26:14.152Z,6.20
2023-03-12T23:28:40.764Z,6.18
2023-03-12T23:31:08.330Z,6.30
2023-03-12T23:33:35.464Z,6.53
2023-03-12T23:36:11.882Z,6.82
2023-03-12T23:38:38.443Z,5.88
2023-03-12T23:41:07.277Z,6.15
2023-03-12T23:43:33.986Z,7.18
2023-03-12T23:46:01.925Z,7.03
2023-03-12T23:48:30.180Z,6.55
2023-03-12T23:51:12.815Z,5.75
2023-03-12T23:56:14.904Z,5.80
2023-03-12T23:58:41.771Z,6.07
